Time;durP1;ratioP1;P1;durP2;ratioP2;P2;SDS_P1;SDS_P2;PMS_P1;PMS_P2;Temp;Humidity;BMP_temperature;BMP_pressure;BME280_temperature;BME280_humidity;BME280_pressure;Samples;Min_cycle;Max_cycle;Signal;HPM_P1;HPM_P2
2021/10/20 00:01:22;;;;;;;5.00;2.60;;;15.20;99.90;;;;;;4985463;28;20502;-54
2021/10/20 00:03:49;;;;;;;4.63;3.33;;;15.20;99.90;;;;;;4985500;28;20486;-52
2021/10/20 00:06:15;;;;;;;4.97;3.30;;;15.10;99.90;;;;;;4985426;28;20467;-54
2021/10/20 00:08:42;;;;;;;5.00;3.07;;;15.10;99.90;;;;;;4984836;28;20509;-57
2021/10/20 00:11:10;;;;;;;5.17;3.37;;;15.10;99.90;;;;;;4985177;28;20451;-55
2021/10/20 00:13:37;;;;;;;4.43;3.60;;;15.10;99.90;;;;;;4985420;28;20769;-49
2021/10/20 00:16:04;;;;;;;4.00;3.10;;;15.00;99.90;;;;;;4985973;28;20475;-52
2021/10/20 00:18:31;;;;;;;4.13;2.80;;;15.00;99.90;;;;;;4985902;28;20451;-49
2021/10/20 00:20:58;;;;;;;4.67;4.17;;;15.00;99.90;;;;;;4986223;28;20467;-54
2021/10/20 00:23:25;;;;;;;5.90;4.53;;;15.00;99.90;;;;;;4985253;28;20482;-55
2021/10/20 00:25:52;;;;;;;5.03;2.87;;;15.00;99.90;;;;;;4983729;28;20522;-54
2021/10/20 00:28:20;;;;;;;4.17;3.23;;;15.00;99.90;;;;;;4984751;28;20454;-48
2021/10/20 00:30:46;;;;;;;6.10;3.87;;;15.00;99.90;;;;;;4984454;28;20546;-53
2021/10/20 00:33:13;;;;;;;6.57;3.73;;;15.00;99.90;;;;;;4984242;28;20501;-53
2021/10/20 00:35:40;;;;;;;3.90;3.47;;;15.00;99.90;;;;;;4985401;28;20463;-50
2021/10/20 00:38:06;;;;;;;5.27;3.27;;;15.00;99.90;;;;;;4985009;28;20450;-52
2021/10/20 00:40:33;;;;;;;4.30;3.90;;;15.00;99.90;;;;;;4984667;28;20470;-52
2021/10/20 00:43:00;;;;;;;5.37;3.50;;;15.00;99.90;;;;;;4984681;28;20455;-53
2021/10/20 00:45:28;;;;;;;3.47;2.90;;;15.00;99.90;;;;;;4984327;28;20618;-53
2021/10/20 00:47:55;;;;;;;5.03;3.90;;;15.00;99.90;;;;;;4984618;28;20439;-52
2021/10/20 00:50:22;;;;;;;4.47;3.03;;;15.00;99.90;;;;;;4984719;28;20491;-50
2021/10/20 00:52:48;;;;;;;7.97;4.60;;;15.00;99.90;;;;;;4984521;28;20443;-53
2021/10/20 00:55:16;;;;;;;6.17;3.70;;;15.00;99.90;;;;;;4984679;28;20470;-55
2021/10/20 00:57:46;;;;;;;7.40;4.80;;;15.00;99.90;;;;;;4985157;28;20490;-54
2021/10/20 01:00:15;;;;;;;7.87;4.90;;;15.00;99.90;;;;;;4984280;28;20470;-54
2021/10/20 01:02:43;;;;;;;6.17;4.97;;;15.00;99.90;;;;;;4984770;28;20451;-56
2021/10/20 01:05:11;;;;;;;7.83;4.80;;;14.90;99.90;;;;;;4984980;28;20475;-57
2021/10/20 01:07:38;;;;;;;7.43;4.83;;;15.00;99.90;;;;;;4984899;28;20447;-56
2021/10/20 01:10:07;;;;;;;10.87;5.80;;;15.00;99.90;;;;;;4983726;28;20483;-55
2021/10/20 01:12:34;;;;;;;8.07;5.30;;;15.00;99.90;;;;;;4985016;28;20435;-53
2021/10/20 01:15:01;;;;;;;6.20;4.53;;;15.00;99.90;;;;;;4984502;28;20474;-55
2021/10/20 01:17:30;;;;;;;6.67;5.30;;;15.00;99.90;;;;;;4984850;28;20442;-53
2021/10/20 01:20:01;;;;;;;6.80;4.83;;;15.00;99.90;;;;;;4983811;28;20494;-53
2021/10/20 01:22:30;;;;;;;8.00;5.73;;;15.00;99.90;;;;;;4984202;28;20490;-55
2021/10/20 01:24:57;;;;;;;9.93;6.20;;;15.00;99.90;;;;;;4984450;28;20486;-54
2021/10/20 01:27:23;;;;;;;8.10;5.83;;;15.00;99.90;;;;;;4984339;28;20450;-51
2021/10/20 01:29:50;;;;;;;8.77;5.77;;;14.90;99.90;;;;;;4984599;28;20552;-52
2021/10/20 01:32:16;;;;;;;12.73;7.33;;;15.00;99.90;;;;;;4984079;28;20443;-51
2021/10/20 01:34:43;;;;;;;8.70;6.00;;;15.00;99.90;;;;;;4984169;28;20459;-49
2021/10/20 01:37:11;;;;;;;13.87;6.53;;;15.00;99.90;;;;;;4984484;28;20454;-52
2021/10/20 01:39:39;;;;;;;14.63;6.43;;;15.00;99.90;;;;;;4983940;28;20443;-56
2021/10/20 01:42:06;;;;;;;10.93;6.97;;;14.90;99.90;;;;;;4983419;28;20546;-55
2021/10/20 01:44:33;;;;;;;9.27;6.20;;;15.00;99.90;;;;;;4984233;28;20955;-53
2021/10/20 01:46:59;;;;;;;8.80;6.27;;;14.90;99.90;;;;;;4983507;28;20443;-55
2021/10/20 01:49:27;;;;;;;14.33;6.60;;;14.90;99.90;;;;;;4984022;28;20490;-56
2021/10/20 01:51:53;;;;;;;6.93;5.20;;;14.90;99.90;;;;;;4984271;28;20498;-55
2021/10/20 01:54:20;;;;;;;10.40;6.00;;;14.80;99.90;;;;;;4983788;28;20925;-54
2021/10/20 01:56:48;;;;;;;8.57;6.03;;;14.80;99.90;;;;;;4983722;28;20486;-54
2021/10/20 01:59:15;;;;;;;7.30;5.70;;;14.80;99.90;;;;;;4984387;28;20477;-53
2021/10/20 02:01:42;;;;;;;7.30;5.30;;;14.80;99.90;;;;;;4984763;28;20463;-53
2021/10/20 02:04:10;;;;;;;8.23;5.67;;;14.80;99.90;;;;;;4984767;28;20451;-55
2021/10/20 02:06:37;;;;;;;10.27;7.33;;;14.70;99.90;;;;;;4983641;28;20475;-51
2021/10/20 02:09:06;;;;;;;9.57;6.17;;;14.70;99.90;;;;;;4983097;28;20995;-53
2021/10/20 02:11:33;;;;;;;8.83;6.17;;;14.70;99.90;;;;;;4982924;28;20494;-53
2021/10/20 02:14:01;;;;;;;9.63;5.70;;;14.70;99.90;;;;;;4983357;28;20529;-54
2021/10/20 02:16:28;;;;;;;8.80;5.60;;;14.70;99.90;;;;;;4983559;28;20541;-51
2021/10/20 02:18:55;;;;;;;9.00;5.70;;;14.70;99.90;;;;;;4982973;28;20451;-55
2021/10/20 02:21:22;;;;;;;8.27;5.40;;;14.70;99.90;;;;;;4983476;28;20463;-54
2021/10/20 02:23:48;;;;;;;7.50;5.27;;;14.70;99.90;;;;;;4983071;28;20498;-54
2021/10/20 02:26:15;;;;;;;9.10;6.43;;;14.70;99.90;;;;;;4983650;28;20498;-54
2021/10/20 02:28:42;;;;;;;10.60;5.50;;;14.60;99.90;;;;;;4983322;28;20446;-53
2021/10/20 02:31:10;;;;;;;8.13;5.40;;;14.60;99.90;;;;;;4983016;28;20494;-54
2021/10/20 02:33:37;;;;;;;9.47;7.00;;;14.60;99.90;;;;;;4982916;28;20423;-52
2021/10/20 02:36:04;;;;;;;6.40;4.50;;;14.60;99.90;;;;;;4982579;28;21038;-52
2021/10/20 02:38:32;;;;;;;8.93;5.87;;;14.60;99.90;;;;;;4982367;28;20447;-53
2021/10/20 02:40:59;;;;;;;7.67;6.17;;;14.60;99.90;;;;;;4983489;28;20561;-55
2021/10/20 02:43:25;;;;;;;10.70;6.77;;;14.50;99.90;;;;;;4983160;28;20436;-56
2021/10/20 02:45:52;;;;;;;9.07;6.20;;;14.50;99.90;;;;;;4981916;28;20456;-53
2021/10/20 02:48:20;;;;;;;9.90;5.90;;;14.50;99.90;;;;;;4984867;28;20439;-55
2021/10/20 02:50:47;;;;;;;12.00;7.13;;;14.50;99.90;;;;;;4987408;28;20486;-54
2021/10/20 02:53:13;;;;;;;6.23;5.03;;;14.50;99.90;;;;;;4986805;28;20431;-55
2021/10/20 02:55:40;;;;;;;7.20;4.83;;;14.50;99.90;;;;;;4987099;28;20446;-55
2021/10/20 02:58:07;;;;;;;12.63;6.17;;;14.50;99.90;;;;;;4986918;28;20533;-55
2021/10/20 03:00:34;;;;;;;8.30;6.07;;;14.50;99.90;;;;;;4987044;28;20454;-54
2021/10/20 03:03:00;;;;;;;8.43;4.70;;;14.40;99.90;;;;;;4986319;28;20892;-51
2021/10/20 03:05:28;;;;;;;11.67;6.40;;;14.30;99.90;;;;;;4986714;28;20477;-52
2021/10/20 03:07:56;;;;;;;7.17;5.77;;;14.40;99.90;;;;;;4986423;28;20459;-54
2021/10/20 03:10:23;;;;;;;8.70;6.40;;;14.40;99.90;;;;;;4987016;28;20506;-54
2021/10/20 03:12:50;;;;;;;9.07;6.40;;;14.40;99.90;;;;;;4987137;28;20836;-55
2021/10/20 03:15:18;;;;;;;10.50;6.07;;;14.40;99.90;;;;;;4986918;28;20814;-55
2021/10/20 03:17:45;;;;;;;9.70;5.90;;;14.40;99.90;;;;;;4987486;28;20443;-55
2021/10/20 03:20:12;;;;;;;7.00;4.57;;;14.30;99.90;;;;;;4986724;28;20823;-54
2021/10/20 03:22:42;;;;;;;5.50;4.73;;;14.30;99.90;;;;;;4986825;28;20759;-55
2021/10/20 03:25:10;;;;;;;9.13;5.80;;;14.40;99.90;;;;;;4987017;28;20446;-55
2021/10/20 03:27:41;;;;;;;11.33;5.97;;;14.40;99.90;;;;;;4987038;28;20482;-52
2021/10/20 03:30:09;;;;;;;9.80;5.57;;;14.40;99.90;;;;;;4986330;28;20485;-55
2021/10/20 03:32:35;;;;;;;8.30;5.67;;;14.30;99.90;;;;;;4986560;28;20533;-57
2021/10/20 03:35:02;;;;;;;7.97;5.30;;;14.30;99.90;;;;;;4986350;28;20474;-52
2021/10/20 03:37:29;;;;;;;7.67;5.10;;;14.30;99.90;;;;;;4986118;28;20482;-51
2021/10/20 03:39:57;;;;;;;7.70;5.30;;;14.30;99.90;;;;;;4986623;28;20529;-55
2021/10/20 03:42:24;;;;;;;8.10;6.20;;;14.30;99.90;;;;;;4986413;28;20553;-51
2021/10/20 03:44:51;;;;;;;8.87;5.57;;;14.30;99.90;;;;;;4986825;28;20509;-53
2021/10/20 03:47:19;;;;;;;7.23;5.10;;;14.30;99.90;;;;;;4986392;28;20503;-54
2021/10/20 03:49:45;;;;;;;12.47;4.40;;;14.30;99.90;;;;;;4985680;28;20463;-54
2021/10/20 03:52:12;;;;;;;8.50;5.20;;;14.30;99.90;;;;;;4985443;28;20482;-52
2021/10/20 03:54:41;;;;;;;7.67;6.43;;;14.30;99.90;;;;;;4986252;28;20462;-49
2021/10/20 03:57:09;;;;;;;7.93;5.87;;;14.30;99.90;;;;;;4986598;28;20483;-54
2021/10/20 03:59:37;;;;;;;8.33;6.40;;;14.30;99.90;;;;;;4986185;28;20435;-53
2021/10/20 04:02:04;;;;;;;7.80;4.83;;;14.30;99.90;;;;;;4985759;28;20471;-49
2021/10/20 04:04:30;;;;;;;6.93;5.10;;;14.30;99.90;;;;;;4984852;28;20447;-54
2021/10/20 04:06:57;;;;;;;10.97;5.50;;;14.20;99.90;;;;;;4985058;28;20467;-53
2021/10/20 04:09:24;;;;;;;7.87;5.03;;;14.20;99.90;;;;;;4985174;28;20459;-52
2021/10/20 04:11:51;;;;;;;5.80;5.17;;;14.20;99.90;;;;;;4985233;28;20498;-56
2021/10/20 04:14:19;;;;;;;8.37;5.50;;;14.20;99.90;;;;;;4985551;28;20459;-51
2021/10/20 04:16:45;;;;;;;9.37;6.43;;;14.20;99.90;;;;;;4984583;28;20525;-56
2021/10/20 04:19:12;;;;;;;7.40;4.83;;;14.30;99.90;;;;;;4985192;28;20451;-55
2021/10/20 04:21:39;;;;;;;9.77;5.30;;;14.30;99.90;;;;;;4984701;28;20443;-52
2021/10/20 04:24:05;;;;;;;9.67;6.07;;;14.30;99.90;;;;;;4985187;28;20510;-51
2021/10/20 04:26:32;;;;;;;8.73;5.70;;;14.30;99.90;;;;;;4985537;28;20462;-55
2021/10/20 04:28:59;;;;;;;8.80;6.07;;;14.30;99.90;;;;;;4985559;28;20431;-51
2021/10/20 04:31:27;;;;;;;6.50;5.17;;;14.20;99.90;;;;;;4986093;28;20525;-54
2021/10/20 04:33:53;;;;;;;7.60;4.87;;;14.30;99.90;;;;;;4985628;28;20570;-55
2021/10/20 04:36:22;;;;;;;5.60;4.30;;;14.20;99.90;;;;;;4985867;28;20505;-53
2021/10/20 04:38:49;;;;;;;6.60;5.17;;;14.30;99.90;;;;;;4985030;28;20446;-56
2021/10/20 04:41:16;;;;;;;7.33;5.50;;;14.30;99.90;;;;;;4985630;28;20451;-56
2021/10/20 04:43:44;;;;;;;10.10;6.00;;;14.20;99.90;;;;;;4985091;28;20483;-48
2021/10/20 04:46:11;;;;;;;7.70;5.40;;;14.20;99.90;;;;;;4985340;28;20510;-54
2021/10/20 04:48:39;;;;;;;7.63;4.80;;;14.20;99.90;;;;;;4985438;28;20471;-54
2021/10/20 04:51:06;;;;;;;10.73;5.47;;;14.20;99.90;;;;;;4984776;28;20498;-55
2021/10/20 04:53:35;;;;;;;10.20;5.40;;;14.20;99.90;;;;;;4984824;28;20466;-55
2021/10/20 04:56:02;;;;;;;5.27;4.23;;;14.20;99.90;;;;;;4984263;28;20447;-53
2021/10/20 04:58:29;;;;;;;6.87;4.43;;;14.20;99.90;;;;;;4985017;28;20474;-53
2021/10/20 05:00:56;;;;;;;6.53;5.40;;;14.10;99.90;;;;;;4985048;28;20470;-54
2021/10/20 05:03:23;;;;;;;8.23;4.83;;;14.10;99.90;;;;;;4984355;28;20530;-56
2021/10/20 05:05:51;;;;;;;7.83;5.60;;;14.10;99.90;;;;;;4984002;28;20920;-52
2021/10/20 05:08:17;;;;;;;6.50;5.20;;;14.10;99.90;;;;;;4984242;28;20470;-55
2021/10/20 05:10:45;;;;;;;6.33;4.80;;;14.20;99.90;;;;;;4983887;28;20509;-54
2021/10/20 05:13:12;;;;;;;14.40;6.27;;;14.10;99.90;;;;;;4983575;28;20506;-55
2021/10/20 05:15:39;;;;;;;6.40;4.70;;;14.20;99.90;;;;;;4983767;28;20466;-54
2021/10/20 05:18:06;;;;;;;5.97;4.70;;;14.10;99.90;;;;;;4983438;28;20459;-53
2021/10/20 05:20:32;;;;;;;8.60;5.37;;;14.10;99.90;;;;;;4983949;28;20463;-53
2021/10/20 05:23:00;;;;;;;6.63;4.40;;;14.10;99.90;;;;;;4984044;28;20471;-53
2021/10/20 05:25:27;;;;;;;7.70;5.00;;;14.10;99.90;;;;;;4984830;28;20443;-55
2021/10/20 05:27:54;;;;;;;8.00;5.07;;;14.10;99.90;;;;;;4984075;28;20479;-55
2021/10/20 05:30:21;;;;;;;6.83;5.00;;;14.10;99.90;;;;;;4984146;28;20548;-53
2021/10/20 05:32:47;;;;;;;4.40;4.00;;;14.10;99.90;;;;;;4984123;28;20498;-51
2021/10/20 05:35:18;;;;;;;8.87;5.80;;;14.10;99.90;;;;;;4984221;28;20447;-46
2021/10/20 05:37:46;;;;;;;7.37;6.20;;;14.10;99.90;;;;;;4984354;28;20467;-54
2021/10/20 05:40:14;;;;;;;6.93;4.00;;;14.10;99.90;;;;;;4983913;28;20533;-54
2021/10/20 05:42:40;;;;;;;6.33;4.87;;;14.00;99.90;;;;;;4983969;28;20554;-57
2021/10/20 05:45:08;;;;;;;8.27;4.97;;;14.10;99.90;;;;;;4984228;28;20462;-52
2021/10/20 05:47:34;;;;;;;7.90;5.67;;;14.10;99.90;;;;;;4984450;28;20475;-55
2021/10/20 05:50:01;;;;;;;6.23;4.03;;;14.00;99.90;;;;;;4984585;28;20506;-57
2021/10/20 05:52:28;;;;;;;5.97;4.70;;;14.00;99.90;;;;;;4983948;28;20544;-55
2021/10/20 05:54:55;;;;;;;5.60;4.67;;;14.10;99.90;;;;;;4984859;28;20451;-56
2021/10/20 05:57:23;;;;;;;7.40;5.43;;;14.10;99.90;;;;;;4983933;28;20446;-54
2021/10/20 05:59:49;;;;;;;5.93;3.97;;;14.10;99.90;;;;;;4984083;28;20443;-52
2021/10/20 06:02:16;;;;;;;6.17;5.10;;;14.10;99.90;;;;;;4984403;28;20455;-54
2021/10/20 06:04:43;;;;;;;6.97;4.50;;;14.10;99.90;;;;;;4984699;28;20431;-52
2021/10/20 06:07:10;;;;;;;7.87;5.50;;;14.10;99.90;;;;;;4984188;28;20506;-51
2021/10/20 06:09:36;;;;;;;6.57;4.30;;;14.10;99.90;;;;;;4983975;28;20471;-56
2021/10/20 06:12:05;;;;;;;6.10;4.80;;;14.10;99.90;;;;;;4984907;28;20542;-55
2021/10/20 06:14:33;;;;;;;5.63;4.80;;;14.20;99.90;;;;;;4984451;28;20455;-54
2021/10/20 06:17:00;;;;;;;5.93;4.13;;;14.20;99.90;;;;;;4984078;28;20521;-51
2021/10/20 06:19:29;;;;;;;6.00;4.60;;;14.20;99.90;;;;;;4984329;28;20896;-56
2021/10/20 06:21:57;;;;;;;4.20;3.50;;;14.10;99.90;;;;;;4985344;28;20455;-59
2021/10/20 06:24:24;;;;;;;5.77;4.20;;;14.10;99.90;;;;;;4989026;28;20541;-52
2021/10/20 06:26:51;;;;;;;9.43;3.73;;;14.20;99.90;;;;;;4987666;28;20482;-49
2021/10/20 06:29:18;;;;;;;4.73;4.00;;;14.20;99.90;;;;;;4983037;28;20499;-52
2021/10/20 06:31:46;;;;;;;6.37;3.80;;;14.30;99.90;;;;;;4982875;28;20505;-48
2021/10/20 06:34:13;;;;;;;5.23;2.90;;;14.30;99.90;;;;;;4983239;28;20864;-48
2021/10/20 06:36:42;;;;;;;7.07;4.43;;;14.30;99.90;;;;;;4982882;28;20454;-49
2021/10/20 06:39:10;;;;;;;6.17;3.93;;;14.30;99.90;;;;;;4983133;28;20535;-50
2021/10/20 06:41:37;;;;;;;5.90;4.03;;;14.30;99.90;;;;;;4983619;28;20450;-48
2021/10/20 06:44:04;;;;;;;8.70;4.20;;;14.40;99.90;;;;;;4983298;28;20503;-50
2021/10/20 06:46:31;;;;;;;5.70;3.47;;;14.40;99.90;;;;;;4983390;28;20458;-51
2021/10/20 06:48:59;;;;;;;4.53;3.47;;;14.40;99.90;;;;;;4987129;28;20471;-53
2021/10/20 06:51:25;;;;;;;5.93;3.30;;;14.40;99.90;;;;;;4984984;28;20501;-50
2021/10/20 06:53:52;;;;;;;5.10;3.63;;;14.50;99.90;;;;;;4983457;28;20851;-49
2021/10/20 06:56:19;;;;;;;4.30;3.30;;;14.50;99.90;;;;;;4983205;28;20832;-46
2021/10/20 06:58:45;;;;;;;5.80;3.70;;;14.60;99.90;;;;;;4983527;28;20478;-47
2021/10/20 07:01:12;;;;;;;4.97;3.70;;;14.70;99.90;;;;;;4984382;28;20513;-50
2021/10/20 07:03:39;;;;;;;4.90;3.00;;;14.70;99.90;;;;;;4982563;28;20485;-51
2021/10/20 07:06:07;;;;;;;5.83;3.20;;;14.70;99.90;;;;;;4982846;28;20454;-50
2021/10/20 07:08:36;;;;;;;4.70;2.97;;;14.80;99.90;;;;;;4982972;28;20474;-48
2021/10/20 07:11:05;;;;;;;8.03;3.30;;;14.80;99.90;;;;;;4982524;28;20517;-50
2021/10/20 07:13:33;;;;;;;5.77;3.80;;;14.80;99.90;;;;;;4982464;28;20474;-51
2021/10/20 07:16:00;;;;;;;3.90;3.10;;;14.90;99.90;;;;;;4982562;28;20773;-47
2021/10/20 07:18:29;;;;;;;6.77;3.30;;;14.90;99.90;;;;;;4983069;28;20483;-51
2021/10/20 07:20:55;;;;;;;3.33;3.03;;;14.90;99.90;;;;;;4987429;28;20459;-45
2021/10/20 07:23:23;;;;;;;6.70;3.77;;;14.90;99.90;;;;;;4983642;28;20493;-47
2021/10/20 07:25:50;;;;;;;4.17;3.27;;;15.00;99.90;;;;;;4982443;28;20463;-49
2021/10/20 07:28:17;;;;;;;5.77;3.50;;;15.00;99.90;;;;;;4981829;28;20885;-47
2021/10/20 07:30:43;;;;;;;3.23;2.60;;;15.10;99.90;;;;;;4982197;28;20812;-49
2021/10/20 07:33:10;;;;;;;4.60;3.33;;;15.10;99.90;;;;;;4981294;28;20490;-51
2021/10/20 07:35:37;;;;;;;4.53;3.03;;;15.10;99.90;;;;;;4982231;28;20423;-49
2021/10/20 07:38:03;;;;;;;5.90;4.23;;;15.20;99.90;;;;;;5024671;23;20560;-45
2021/10/20 07:40:31;;;;;;;5.40;3.30;;;15.20;99.90;;;;;;4982375;28;20439;-50
2021/10/20 07:45:27;;;;;;;4.03;3.20;;;15.40;99.90;;;;;;4994205;23;20490;-49
2021/10/20 07:47:56;;;;;;;4.73;3.30;;;15.50;99.90;;;;;;5060581;23;20527;-49
2021/10/20 07:50:24;;;;;;;6.07;3.07;;;15.60;99.90;;;;;;5032225;23;20967;-46
2021/10/20 07:52:55;;;;;;;3.60;2.90;;;15.70;99.90;;;;;;4999168;28;20505;-52
2021/10/20 07:55:28;;;;;;;7.23;2.57;;;15.80;99.90;;;;;;5005535;23;20486;-51
2021/10/20 07:58:00;;;;;;;3.50;3.20;;;15.80;99.90;;;;;;4999266;28;20431;-51
2021/10/20 08:00:28;;;;;;;5.47;3.10;;;16.00;99.90;;;;;;5021010;23;20494;-53
2021/10/20 08:02:56;;;;;;;3.47;2.40;;;16.10;99.90;;;;;;4998502;28;20443;-52
2021/10/20 08:05:23;;;;;;;5.07;3.70;;;16.10;99.90;;;;;;5005352;23;20494;-47
2021/10/20 08:07:52;;;;;;;2.57;2.37;;;16.20;99.90;;;;;;4998814;28;20435;-52
2021/10/20 08:10:21;;;;;;;6.20;3.13;;;16.20;99.90;;;;;;5006347;23;20482;-48
2021/10/20 08:12:48;;;;;;;5.00;2.83;;;16.20;99.90;;;;;;4998247;28;20486;-53
2021/10/20 08:15:17;;;;;;;5.30;2.93;;;16.20;99.90;;;;;;5036519;23;20486;-55
2021/10/20 08:17:44;;;;;;;4.07;2.80;;;16.30;99.90;;;;;;4998106;28;20516;-51
2021/10/20 08:20:15;;;;;;;3.03;2.17;;;16.30;99.90;;;;;;5035080;23;20531;-52
2021/10/20 08:22:45;;;;;;;4.30;3.13;;;16.40;99.90;;;;;;4998444;28;20505;-52
2021/10/20 08:25:14;;;;;;;4.37;3.10;;;16.50;99.90;;;;;;5050826;23;20486;-48
2021/10/20 08:27:41;;;;;;;5.20;3.40;;;16.50;99.90;;;;;;4998277;28;20411;-50
2021/10/20 08:30:17;;;;;;;9.53;5.80;;;16.60;99.90;;;;;;5005085;23;20471;-47
2021/10/20 08:32:46;;;;;;;5.90;2.97;;;16.60;99.90;;;;;;4997719;28;20474;-45
2021/10/20 08:35:16;;;;;;;4.20;3.03;;;16.70;99.90;;;;;;5004563;23;20453;-47
2021/10/20 08:37:54;;;;;;;4.23;2.57;;;16.70;99.90;;;;;;5005512;23;20475;-49
2021/10/20 08:40:25;;;;;;;3.70;2.30;;;16.80;99.90;;;;;;4997909;28;20463;-49
2021/10/20 08:42:52;;;;;;;3.50;2.70;;;16.90;99.90;;;;;;5005206;23;20477;-56
2021/10/20 08:45:20;;;;;;;2.90;2.40;;;16.90;99.90;;;;;;4996489;28;20466;-55
2021/10/20 08:47:48;;;;;;;2.83;2.03;;;17.00;99.90;;;;;;5004802;23;20493;-44
2021/10/20 08:50:19;;;;;;;3.80;3.03;;;17.10;99.90;;;;;;4997747;28;20522;-48
2021/10/20 08:52:47;;;;;;;3.10;2.50;;;17.20;99.90;;;;;;5005022;23;20486;-48
2021/10/20 08:55:16;;;;;;;2.70;2.13;;;17.30;99.90;;;;;;4997403;28;20474;-44
2021/10/20 08:57:45;;;;;;;3.77;2.40;;;17.40;99.90;;;;;;5019612;23;20656;-50
2021/10/20 09:00:14;;;;;;;4.10;2.60;;;17.30;99.90;;;;;;4997356;28;20467;-43
2021/10/20 09:02:41;;;;;;;6.00;3.20;;;17.30;99.90;;;;;;5004453;23;20487;-52
2021/10/20 09:05:11;;;;;;;4.17;2.73;;;17.40;99.90;;;;;;4997254;28;20443;-45
2021/10/20 09:07:41;;;;;;;2.67;2.30;;;17.40;99.90;;;;;;5050017;23;20491;-47
2021/10/20 09:10:08;;;;;;;2.87;2.53;;;17.40;99.90;;;;;;4997234;28;20442;-46
2021/10/20 09:12:37;;;;;;;2.37;2.00;;;17.30;99.90;;;;;;5004477;23;21230;-48
2021/10/20 09:15:06;;;;;;;3.10;2.47;;;17.20;99.90;;;;;;5003886;23;20479;-51
2021/10/20 09:17:49;;;;;;;3.73;2.60;;;17.20;99.90;;;;;;4996819;28;20438;-48
2021/10/20 09:20:26;;;;;;;2.70;2.43;;;17.30;99.90;;;;;;5002878;23;20494;-53
2021/10/20 09:22:56;;;;;;;3.70;2.50;;;17.30;99.90;;;;;;4997506;28;20411;-46
2021/10/20 09:25:27;;;;;;;3.60;2.17;;;17.30;99.90;;;;;;5004246;23;20490;-47
2021/10/20 09:27:57;;;;;;;3.97;2.40;;;17.20;99.90;;;;;;4997397;28;20433;-45
2021/10/20 09:30:27;;;;;;;3.77;2.70;;;17.10;99.90;;;;;;5004088;23;20529;-65
2021/10/20 09:32:57;;;;;;;3.27;2.77;;;16.90;99.90;;;;;;4997429;28;20483;-57
2021/10/20 09:35:33;;;;;;;3.63;2.40;;;16.80;99.90;;;;;;4997554;23;20494;-44
2021/10/20 09:38:01;;;;;;;2.80;2.47;;;16.80;99.90;;;;;;4958736;29;20432;-45
2021/10/20 09:40:35;;;;;;;3.20;2.80;;;16.70;99.90;;;;;;4984806;23;20497;-48
2021/10/20 09:43:05;;;;;;;3.10;2.63;;;16.60;99.90;;;;;;4996130;28;20453;-49
2021/10/20 09:45:36;;;;;;;3.67;3.00;;;16.50;99.90;;;;;;5049309;23;20526;-45
2021/10/20 09:48:11;;;;;;;5.27;3.63;;;16.30;99.90;;;;;;4996542;28;20415;-49
2021/10/20 09:50:41;;;;;;;5.37;2.77;;;16.20;99.90;;;;;;5018677;23;20517;-47
2021/10/20 09:53:08;;;;;;;3.80;3.23;;;16.10;99.90;;;;;;4996374;28;20507;-50
2021/10/20 09:55:34;;;;;;;4.97;3.67;;;16.00;99.90;;;;;;5019001;23;20475;-46
2021/10/20 09:58:11;;;;;;;3.67;2.70;;;16.00;99.90;;;;;;4995869;28;20518;-44
2021/10/20 10:00:38;;;;;;;3.90;3.50;;;16.00;99.90;;;;;;5018708;23;20491;-51
2021/10/20 10:03:06;;;;;;;4.73;2.97;;;16.00;99.90;;;;;;4996252;28;20463;-52
2021/10/20 10:05:34;;;;;;;3.07;2.43;;;15.90;99.90;;;;;;5017882;23;20441;-49
2021/10/20 10:08:06;;;;;;;4.63;4.17;;;15.90;99.90;;;;;;4995742;28;20459;-47
2021/10/20 10:10:33;;;;;;;6.20;3.30;;;15.90;99.90;;;;;;5019693;23;20419;-50
2021/10/20 10:13:05;;;;;;;5.20;3.33;;;15.70;99.90;;;;;;4995012;28;20506;-46
2021/10/20 10:18:18;;;;;;;3.80;2.87;;;15.30;99.90;;;;;;5016127;23;20498;-50
2021/10/20 10:23:30;;;;;;;4.60;3.13;;;15.00;99.90;;;;;;5034665;23;20483;-49
2021/10/20 10:26:00;;;;;;;4.33;2.60;;;14.90;99.90;;;;;;4995878;28;20469;-49
2021/10/20 10:28:31;;;;;;;4.70;3.57;;;14.80;99.90;;;;;;5018233;23;20526;-45
2021/10/20 10:31:04;;;;;;;3.73;2.73;;;14.70;99.90;;;;;;4995645;28;20502;-47
2021/10/20 10:33:33;;;;;;;4.27;2.60;;;14.70;99.90;;;;;;5033285;23;20482;-47
2021/10/20 10:36:11;;;;;;;5.87;3.77;;;14.70;99.90;;;;;;4995282;28;20461;-47
2021/10/20 10:38:41;;;;;;;6.37;3.73;;;14.70;99.90;;;;;;5017873;23;20490;-48
2021/10/20 10:41:20;;;;;;;5.67;3.73;;;14.80;99.90;;;;;;4995655;28;20467;-49
2021/10/20 10:44:12;;;;;;;10.50;3.80;;;14.90;99.90;;;;;;5002836;23;20496;-43
2021/10/20 10:46:41;;;;;;;6.37;3.70;;;15.00;99.90;;;;;;4996168;28;20541;-51
2021/10/20 10:49:26;;;;;;;5.00;2.77;;;15.10;99.90;;;;;;5034457;23;20498;-50
2021/10/20 10:52:28;;;;;;;4.97;3.20;;;15.30;99.90;;;;;;4996226;28;20430;-45
2021/10/20 10:55:17;;;;;;;4.70;2.90;;;15.40;99.90;;;;;;4995784;28;20439;-51
2021/10/20 10:57:53;;;;;;;6.93;3.37;;;15.50;99.90;;;;;;4996074;28;20443;-50
2021/10/20 11:00:47;;;;;;;6.20;3.10;;;15.60;99.90;;;;;;4995882;28;20461;-52
2021/10/20 11:03:27;;;;;;;5.80;3.00;;;15.60;99.90;;;;;;4995467;28;20474;-47
2021/10/20 11:06:01;;;;;;;5.50;3.07;;;15.70;99.90;;;;;;4995600;28;20442;-47
2021/10/20 11:08:33;;;;;;;3.30;2.40;;;15.80;99.90;;;;;;4996087;28;20470;-45
2021/10/20 11:11:03;;;;;;;3.93;3.03;;;15.80;99.90;;;;;;4999236;28;20442;-47
2021/10/20 11:13:34;;;;;;;5.10;3.40;;;15.80;99.90;;;;;;4999566;28;20486;-48
2021/10/20 11:16:00;;;;;;;4.27;3.27;;;15.80;99.90;;;;;;4999551;28;20439;-53
2021/10/20 11:18:27;;;;;;;6.33;3.73;;;15.80;99.90;;;;;;4999083;28;20451;-48
2021/10/20 11:20:55;;;;;;;5.00;3.40;;;15.80;99.90;;;;;;4999005;28;20470;-48
2021/10/20 11:23:29;;;;;;;5.47;3.03;;;15.80;99.90;;;;;;4999270;28;20487;-53
2021/10/20 11:26:02;;;;;;;3.93;3.00;;;15.80;99.90;;;;;;4999217;28;20455;-45
2021/10/20 11:28:32;;;;;;;4.60;3.00;;;15.80;99.90;;;;;;4999180;28;20470;-56
2021/10/20 11:31:06;;;;;;;6.53;3.93;;;15.90;99.90;;;;;;4999163;28;20435;-50
2021/10/20 11:33:35;;;;;;;5.90;3.50;;;15.90;99.90;;;;;;4999060;28;20466;-51
2021/10/20 11:36:02;;;;;;;4.50;3.50;;;15.90;99.90;;;;;;4999217;28;20490;-59
2021/10/20 11:38:34;;;;;;;3.40;3.10;;;16.00;99.90;;;;;;4997906;28;20431;-58
2021/10/20 11:41:02;;;;;;;4.93;3.23;;;16.00;99.90;;;;;;4999335;28;20439;-54
2021/10/20 11:43:35;;;;;;;6.47;3.83;;;16.00;99.90;;;;;;4999406;28;20470;-56
2021/10/20 11:46:03;;;;;;;4.50;3.20;;;16.10;99.90;;;;;;4999127;28;20435;-54
2021/10/20 11:48:30;;;;;;;6.57;3.27;;;16.20;99.90;;;;;;4998585;28;20459;-50
2021/10/20 11:51:02;;;;;;;4.97;2.97;;;16.30;99.90;;;;;;4998728;28;20457;-51
2021/10/20 11:53:30;;;;;;;3.67;3.17;;;16.30;99.90;;;;;;4998756;28;20506;-50
2021/10/20 11:56:00;;;;;;;4.23;3.03;;;16.40;99.90;;;;;;4998645;28;20431;-47
2021/10/20 11:58:29;;;;;;;6.10;3.50;;;16.50;99.90;;;;;;4998777;28;20442;-48
2021/10/20 12:00:58;;;;;;;6.57;2.70;;;16.50;99.90;;;;;;4998976;28;20438;-49
2021/10/20 12:03:33;;;;;;;5.63;3.13;;;16.60;99.90;;;;;;4998315;28;20464;-47
2021/10/20 12:06:00;;;;;;;4.33;2.63;;;16.70;99.90;;;;;;4998689;28;20466;-48
2021/10/20 12:08:27;;;;;;;4.10;2.67;;;16.80;99.90;;;;;;4998292;28;20443;-51
2021/10/20 12:10:53;;;;;;;6.00;3.20;;;16.90;99.90;;;;;;4998507;28;20506;-53
2021/10/20 12:13:20;;;;;;;4.23;2.40;;;17.00;99.90;;;;;;4998697;28;20479;-49
2021/10/20 12:15:49;;;;;;;4.13;2.20;;;17.10;99.90;;;;;;4998153;28;20476;-51
2021/10/20 12:18:17;;;;;;;5.03;2.70;;;17.20;99.90;;;;;;4998639;28;20458;-46
2021/10/20 12:20:49;;;;;;;3.50;3.20;;;17.30;99.90;;;;;;4998999;28;20431;-47
2021/10/20 12:23:16;;;;;;;2.70;2.50;;;17.30;99.90;;;;;;4998410;28;20424;-62
2021/10/20 12:25:43;;;;;;;4.53;2.53;;;17.30;99.90;;;;;;4998886;28;20514;-57
2021/10/20 12:28:10;;;;;;;2.93;2.63;;;17.40;99.90;;;;;;4998723;28;20462;-53
2021/10/20 12:30:38;;;;;;;2.63;2.27;;;17.40;99.90;;;;;;4998945;28;20458;-59
2021/10/20 12:33:12;;;;;;;8.23;2.73;;;17.50;99.90;;;;;;4998350;28;20491;-50
2021/10/20 12:35:42;;;;;;;3.83;3.20;;;17.50;99.90;;;;;;4997645;28;20410;-50
2021/10/20 12:38:11;;;;;;;2.70;2.23;;;17.60;99.90;;;;;;4997683;28;20540;-51
2021/10/20 12:40:39;;;;;;;3.63;2.70;;;17.70;99.90;;;;;;4997704;28;20447;-47
2021/10/20 12:43:08;;;;;;;4.27;3.00;;;17.80;99.90;;;;;;4997570;28;20486;-52
2021/10/20 12:45:36;;;;;;;3.00;2.47;;;17.90;99.90;;;;;;4998201;28;20482;-49
2021/10/20 12:48:07;;;;;;;3.57;3.00;;;18.20;99.90;;;;;;4997939;28;20482;-51
2021/10/20 12:50:38;;;;;;;3.33;2.67;;;18.40;99.90;;;;;;4997980;28;20454;-51
2021/10/20 12:53:07;;;;;;;3.83;2.10;;;18.60;99.90;;;;;;4998036;28;20475;-49
2021/10/20 12:55:34;;;;;;;5.27;2.83;;;18.70;99.90;;;;;;4997629;28;20478;-48
2021/10/20 12:58:01;;;;;;;4.50;2.77;;;18.80;99.90;;;;;;4997880;28;20451;-46
2021/10/20 13:00:30;;;;;;;4.60;2.90;;;18.90;99.90;;;;;;4997835;28;20502;-44